Edwards, CA (93523)

6:38 AM PDT on September 04, 2015 (GMT -0700)
Edwards AFB North Base | | Change Station
CLOSE
Current Station
Airport
Location: Edwards AFB North Base,
Elevation: 2300 ft
Nearby Weather Stations

Elev 2300 ft 34.99 °N, 117.86 °W | Updated 43 minutes ago

Clear
Clear
56 °F
Feels Like 56 °F
N
9
Wind Variable Wind from South

Today
High -- | Low -- °F
--% Chance of Precip.
Yesterday
High -- | Low -- °F
Precip. -- in
6:26 AM 7:14 PM
Waning Gibbous, 59% visible
Pressure 29.81 in
Visibility 10.0 miles
Clouds Clear
Dew Point 46 °F
Humidity 69%
Rainfall 0.00 in
Snow Depth Not available.
UV 0 out of 12
Pollen 9.20 out of 12
Air Quality Not available.
Flu Activity Not available.
METAR K9L2 041255Z AUTO 19008KT 10SM CLR 13/08 A2984 RMK AO2 SLP093 T01330078 TSNO $
Pressure 29.81 in
Visibility 10.0 miles
Clouds Clear
Dew Point 46 °F
Humidity 69%
Rainfall 0.00 in
Snow Depth Not available.
UV 0 out of 12
Pollen 9.20 out of 12
Air Quality Not available.
Flu Activity Not available.
METAR K9L2 041255Z AUTO 19008KT 10SM CLR 13/08 A2984 RMK AO2 SLP093 T01330078 TSNO $

10-Day Weather Forecast

×

Almanac

Astronomy

Sep. 04, 2015 Rise Set
Actual Time
Civil Twilight
Nautical Twilight
Astronomical Twilight
Moon
Length of Visible Light
Length of Day
Tomorrow will be .
, % of the Moon is Illuminated

Today's Extremes

State Highs State Lows

Community

WunderPhotos

Upload Photos

1,852,181 photos uploaded!

WunderBlogs® & News

Nearby

Air Quality

  Air Quality AQ Index Pollutant
Not available.

Snow Depth

Station Depth Elevation

Earthquake Activity

City Distance Mag. Time & Date
Minimum magnitude displayed is 2.5.

Coastal Water Temperatures

Place Temperature

Stations

Nearby Weather Stations

Station Location Temp. Windchill Dew Point Humidity Wind Precip. Elev Updated Type